createdAt,value
2019-04-03T00:01:26.418Z,9.10
2019-04-03T00:03:56.123Z,9.10
2019-04-03T00:06:26.011Z,9.10
2019-04-03T00:08:55.741Z,9.10
2019-04-03T00:11:25.904Z,9.10
2019-04-03T00:13:55.531Z,9.10
2019-04-03T00:16:25.450Z,9.10
2019-04-03T00:18:55.216Z,9.10
2019-04-03T00:21:24.858Z,9.20
2019-04-03T00:23:54.609Z,9.10
2019-04-03T00:26:24.308Z,9.20
2019-04-03T00:28:54.048Z,9.20
2019-04-03T00:31:23.851Z,9.20
2019-04-03T00:33:54.795Z,9.20
2019-04-03T00:36:24.445Z,9.10
2019-04-03T00:38:54.670Z,9.10
2019-04-03T00:41:25.110Z,9.10
2019-04-03T00:43:55.114Z,9.20
2019-04-03T00:46:25.166Z,9.20
2019-04-03T00:48:55.862Z,9.10
2019-04-03T00:51:27.420Z,9.10
2019-04-03T00:53:58.176Z,9.10
2019-04-03T00:56:28.924Z,9.10
2019-04-03T00:58:58.621Z,9.00
2019-04-03T01:01:28.276Z,9.00
2019-04-03T01:03:58.839Z,9.10
2019-04-03T01:06:29.023Z,9.00
2019-04-03T01:08:59.435Z,9.00
2019-04-03T01:11:32.432Z,9.00
2019-04-03T01:14:02.302Z,9.00
2019-04-03T01:16:34.174Z,9.00
2019-04-03T01:19:05.731Z,9.00
2019-04-03T01:21:37.266Z,9.00
2019-04-03T01:24:08.376Z,9.00
2019-04-03T01:26:40.188Z,9.00
2019-04-03T01:29:10.603Z,9.00
2019-04-03T01:31:41.023Z,9.00
2019-04-03T01:34:11.662Z,8.90
2019-04-03T01:36:41.334Z,8.90
2019-04-03T01:39:11.016Z,8.80
2019-04-03T01:41:40.719Z,8.80
2019-04-03T01:44:10.361Z,8.70
2019-04-03T01:46:40.002Z,8.60
2019-04-03T01:49:09.687Z,8.60
2019-04-03T01:51:39.438Z,8.60
2019-04-03T01:54:09.095Z,8.60
2019-04-03T01:56:38.732Z,8.60
2019-04-03T01:59:08.620Z,8.60
2019-04-03T02:01:39.027Z,8.50
2019-04-03T02:04:09.194Z,8.50
2019-04-03T02:06:38.835Z,8.40
2019-04-03T02:09:10.327Z,8.30
2019-04-03T02:11:39.982Z,8.30
2019-04-03T02:14:09.716Z,8.30
2019-04-03T02:16:39.454Z,8.30
2019-04-03T02:19:10.132Z,8.30
2019-04-03T02:21:39.873Z,8.30
2019-04-03T02:24:09.731Z,8.30
2019-04-03T02:26:39.399Z,8.30
2019-04-03T02:29:09.330Z,8.30
2019-04-03T02:31:39.076Z,8.30
2019-04-03T02:34:08.792Z,8.40
2019-04-03T02:36:38.509Z,8.30
2019-04-03T02:39:08.306Z,8.40
2019-04-03T02:41:38.248Z,8.40
2019-04-03T02:44:09.032Z,8.40
2019-04-03T02:46:39.864Z,8.40
2019-04-03T02:49:10.883Z,8.50
2019-04-03T02:51:43.078Z,8.50
2019-04-03T02:54:27.156Z,8.40
2019-04-03T02:56:58.321Z,8.50
2019-04-03T02:59:28.021Z,8.40
2019-04-03T03:01:57.740Z,8.40
2019-04-03T03:04:27.541Z,8.40
2019-04-03T03:06:57.210Z,8.40
2019-04-03T03:09:27.389Z,8.40
2019-04-03T03:11:57.310Z,8.40
2019-04-03T03:14:27.698Z,8.40
2019-04-03T03:16:59.317Z,8.40
2019-04-03T03:19:31.920Z,8.40
2019-04-03T03:22:01.422Z,8.40
2019-04-03T03:24:32.841Z,8.40
2019-04-03T03:27:02.856Z,8.30
2019-04-03T03:29:33.005Z,8.20
2019-04-03T03:32:13.106Z,8.20
2019-04-03T03:34:50.625Z,8.20
2019-04-03T03:37:06.815Z,8.10
2019-04-03T03:39:37.595Z,8.10
2019-04-03T03:42:07.841Z,8.10
2019-04-03T03:44:38.189Z,8.10
2019-04-03T03:47:08.661Z,8.00
2019-04-03T03:49:40.008Z,8.10
2019-04-03T03:52:10.208Z,8.10
2019-04-03T03:54:40.180Z,8.10
2019-04-03T03:57:10.480Z,8.10
2019-04-03T03:59:40.816Z,8.10
2019-04-03T04:02:10.692Z,8.10
2019-04-03T04:04:41.257Z,8.10
2019-04-03T04:07:11.230Z,8.10
2019-04-03T04:09:41.438Z,8.20
2019-04-03T04:12:11.956Z,8.20
2019-04-03T04:14:41.993Z,8.20
2019-04-03T04:17:15.830Z,8.20
2019-04-03T04:19:43.858Z,8.20
2019-04-03T04:22:16.622Z,8.20
2019-04-03T04:24:45.327Z,8.20
2019-04-03T04:27:16.644Z,8.20
2019-04-03T04:29:46.727Z,8.10
2019-04-03T04:32:16.739Z,8.20
2019-04-03T04:34:49.270Z,8.10
2019-04-03T04:37:17.938Z,8.10
2019-04-03T04:39:47.821Z,8.10
2019-04-03T04:42:17.656Z,8.10
2019-04-03T04:44:47.369Z,8.10
2019-04-03T04:47:17.994Z,8.00
2019-04-03T04:49:47.948Z,8.00
2019-04-03T04:52:17.647Z,8.00
2019-04-03T04:54:47.291Z,8.00
2019-04-03T04:57:16.964Z,8.00
2019-04-03T04:59:46.702Z,8.00
2019-04-03T05:02:17.865Z,8.00
2019-04-03T05:04:47.904Z,8.00
2019-04-03T05:07:17.748Z,8.00
2019-04-03T05:09:47.499Z,8.00
2019-04-03T05:12:17.476Z,8.00
2019-04-03T05:14:48.903Z,8.10
2019-04-03T05:17:18.674Z,8.10
2019-04-03T05:19:49.520Z,8.10
2019-04-03T05:22:19.406Z,8.20
2019-04-03T05:24:49.220Z,8.20
2019-04-03T05:27:19.095Z,8.20
2019-04-03T05:29:49.075Z,8.20
2019-04-03T05:32:19.019Z,8.20
2019-04-03T05:34:49.096Z,8.30
2019-04-03T05:37:20.236Z,8.30
2019-04-03T05:39:50.879Z,8.30
2019-04-03T05:42:21.092Z,8.30
2019-04-03T05:44:50.882Z,8.30
2019-04-03T05:47:20.799Z,8.30
2019-04-03T05:49:52.607Z,8.30
2019-04-03T05:52:22.606Z,8.30
2019-04-03T05:54:52.573Z,8.30
2019-04-03T05:57:22.668Z,8.40
2019-04-03T06:00:00.632Z,8.40
2019-04-03T06:02:25.381Z,8.40
2019-04-03T06:04:55.350Z,8.40
2019-04-03T06:07:25.289Z,8.50
2019-04-03T06:09:58.063Z,8.40
2019-04-03T06:12:26.687Z,8.40
2019-04-03T06:14:56.495Z,8.40
2019-04-03T06:17:26.669Z,8.40
2019-04-03T06:19:56.447Z,8.40
2019-04-03T06:22:26.308Z,8.50
2019-04-03T06:24:57.072Z,8.40
2019-04-03T06:27:27.940Z,8.50
2019-04-03T06:29:58.016Z,8.50
2019-04-03T06:32:29.227Z,8.50
2019-04-03T06:35:02.599Z,8.50
2019-04-03T06:37:33.655Z,8.60
2019-04-03T06:40:04.306Z,8.60
2019-04-03T06:42:34.387Z,8.70
2019-04-03T06:45:04.853Z,8.70
2019-04-03T06:47:34.717Z,8.70
2019-04-03T06:50:05.145Z,8.80
2019-04-03T06:52:35.133Z,8.80
2019-04-03T06:55:05.362Z,8.80
2019-04-03T06:57:35.205Z,8.70
2019-04-03T07:00:05.689Z,8.70
2019-04-03T07:02:35.578Z,8.70
2019-04-03T07:05:05.899Z,8.70
2019-04-03T07:07:35.772Z,8.70
2019-04-03T07:10:08.795Z,8.60
2019-04-03T07:12:38.481Z,8.70
2019-04-03T07:15:08.777Z,8.70
2019-04-03T07:17:38.714Z,8.70
2019-04-03T07:20:14.500Z,8.60
2019-04-03T07:22:41.304Z,8.70
2019-04-03T07:25:11.355Z,8.70
2019-04-03T07:27:42.356Z,8.70
2019-04-03T07:30:12.884Z,8.60
2019-04-03T07:32:42.733Z,8.60
2019-04-03T07:35:12.725Z,8.60
2019-04-03T07:37:42.656Z,8.60
2019-04-03T07:40:13.491Z,8.60
2019-04-03T07:42:43.442Z,8.60
2019-04-03T07:45:13.787Z,8.60
2019-04-03T07:47:43.758Z,8.70
2019-04-03T07:50:14.096Z,8.70
2019-04-03T07:52:44.099Z,8.80
2019-04-03T07:55:14.021Z,8.80
2019-04-03T07:57:43.883Z,8.80
2019-04-03T08:00:14.538Z,8.90
2019-04-03T08:02:47.924Z,8.90
2019-04-03T08:05:16.401Z,8.90
2019-04-03T08:07:46.293Z,9.00
2019-04-03T08:10:16.448Z,9.00
2019-04-03T08:12:46.278Z,9.10
2019-04-03T08:15:16.210Z,9.10
2019-04-03T08:17:46.055Z,9.10
2019-04-03T08:20:15.931Z,9.10
2019-04-03T08:22:45.965Z,9.20
2019-04-03T08:25:15.947Z,9.20
2019-04-03T08:27:46.084Z,9.30
2019-04-03T08:30:16.287Z,9.30
2019-04-03T08:32:48.187Z,9.30
2019-04-03T08:35:21.671Z,9.20
2019-04-03T08:37:49.135Z,9.30
2019-04-03T08:40:20.417Z,9.30
2019-04-03T08:42:50.339Z,9.20
2019-04-03T08:45:21.989Z,9.20
2019-04-03T08:47:51.512Z,9.20
2019-04-03T08:50:21.320Z,9.20
2019-04-03T08:52:51.284Z,9.20
2019-04-03T08:55:21.012Z,9.30
2019-04-03T08:57:52.246Z,9.30
2019-04-03T09:00:22.627Z,9.40
2019-04-03T09:02:52.490Z,9.40
2019-04-03T09:05:22.374Z,9.40
2019-04-03T09:07:55.275Z,9.50
2019-04-03T09:10:24.601Z,9.50
2019-04-03T09:12:54.535Z,9.60
2019-04-03T09:15:25.691Z,9.60
2019-04-03T09:17:55.590Z,9.60
2019-04-03T09:20:25.494Z,9.60
2019-04-03T09:22:55.179Z,9.70
2019-04-03T09:25:24.833Z,9.70
2019-04-03T09:27:54.485Z,9.70
2019-04-03T09:30:24.996Z,9.60
2019-04-03T09:32:54.801Z,9.70
2019-04-03T09:35:25.446Z,9.70
2019-04-03T09:37:55.812Z,9.80
2019-04-03T09:40:25.785Z,9.80
2019-04-03T09:42:55.451Z,9.80
2019-04-03T09:45:26.066Z,9.90
2019-04-03T09:47:56.608Z,9.90
2019-04-03T09:50:27.255Z,10.00
2019-04-03T09:52:57.121Z,10.10
2019-04-03T09:55:27.116Z,10.10
2019-04-03T09:57:56.835Z,10.20
2019-04-03T10:00:27.185Z,10.20
2019-04-03T10:02:56.875Z,10.20
2019-04-03T10:05:26.743Z,10.20
2019-04-03T10:07:58.312Z,10.20
2019-04-03T10:10:28.204Z,10.20
2019-04-03T10:12:57.859Z,10.30
2019-04-03T10:15:30.314Z,10.30
2019-04-03T10:17:58.868Z,10.40
2019-04-03T10:20:28.626Z,10.40
2019-04-03T10:22:59.694Z,10.50
2019-04-03T10:25:29.467Z,10.50
2019-04-03T10:27:59.319Z,10.60
2019-04-03T10:30:29.583Z,10.70
2019-04-03T10:33:00.165Z,10.70
2019-04-03T10:35:30.626Z,10.80
2019-04-03T10:38:00.398Z,10.80
2019-04-03T10:40:31.015Z,10.90
2019-04-03T10:43:02.764Z,11.00
2019-04-03T10:45:32.193Z,11.00
2019-04-03T10:48:02.086Z,11.10
2019-04-03T10:50:31.732Z,11.20
2019-04-03T10:53:01.453Z,11.20
2019-04-03T10:55:31.378Z,11.30
2019-04-03T10:58:02.283Z,11.30
2019-04-03T11:00:32.706Z,11.40
2019-04-03T11:03:02.538Z,11.40
2019-04-03T11:05:32.612Z,11.50
2019-04-03T11:08:02.530Z,11.50
2019-04-03T11:10:33.223Z,11.60
2019-04-03T11:13:03.818Z,11.70
2019-04-03T11:15:33.901Z,11.80
2019-04-03T11:18:03.885Z,11.90
2019-04-03T11:20:35.816Z,12.00
2019-04-03T11:23:07.583Z,12.20
2019-04-03T11:25:36.558Z,12.20
2019-04-03T11:28:06.541Z,12.30
2019-04-03T11:30:36.806Z,12.40
2019-04-03T11:33:06.459Z,12.50
2019-04-03T11:35:36.135Z,12.60
2019-04-03T11:38:12.798Z,12.70
2019-04-03T11:40:37.136Z,12.80
2019-04-03T11:43:06.963Z,13.00
2019-04-03T11:45:36.635Z,13.00
2019-04-03T11:48:06.903Z,13.10
2019-04-03T11:50:38.877Z,13.20
2019-04-03T11:53:08.400Z,13.30
2019-04-03T11:55:38.175Z,13.40
2019-04-03T11:58:08.791Z,13.50
2019-04-03T12:00:43.644Z,13.60
2019-04-03T12:03:13.383Z,13.70
2019-04-03T12:05:43.038Z,13.70
2019-04-03T12:08:13.067Z,13.60
2019-04-03T12:10:42.906Z,13.60
2019-04-03T12:13:14.476Z,13.70
2019-04-03T12:15:44.893Z,13.80
2019-04-03T12:18:14.970Z,13.90
2019-04-03T12:20:45.592Z,13.90
2019-04-03T12:23:16.311Z,14.10
2019-04-03T12:25:45.979Z,14.20
2019-04-03T12:28:17.420Z,14.20
2019-04-03T12:30:46.999Z,14.40
2019-04-03T12:33:16.896Z,14.30
2019-04-03T12:35:46.663Z,14.20
2019-04-03T12:38:16.311Z,14.20
2019-04-03T12:40:45.947Z,14.00
2019-04-03T12:43:15.775Z,13.90
2019-04-03T12:45:45.790Z,14.00
2019-04-03T12:48:17.369Z,13.90
2019-04-03T12:50:46.943Z,13.90
2019-04-03T12:53:17.304Z,13.90
2019-04-03T12:55:47.248Z,14.00
2019-04-03T12:58:18.240Z,14.00
2019-04-03T13:00:49.147Z,14.00
2019-04-03T13:03:19.441Z,14.10
2019-04-03T13:05:49.605Z,14.10
2019-04-03T13:08:21.135Z,14.10
2019-04-03T13:10:51.214Z,14.10
2019-04-03T13:13:20.973Z,14.10
2019-04-03T13:15:51.586Z,14.10
2019-04-03T13:18:21.403Z,14.00
2019-04-03T13:20:51.043Z,14.00
2019-04-03T13:23:20.762Z,14.10
2019-04-03T13:25:51.009Z,14.10
2019-04-03T13:28:21.749Z,14.10
2019-04-03T13:30:51.405Z,14.10
2019-04-03T13:33:21.108Z,14.10
2019-04-03T13:35:50.780Z,14.10
2019-04-03T13:38:20.657Z,14.10
2019-04-03T13:40:50.419Z,14.10
2019-04-03T13:43:22.322Z,14.10
2019-04-03T13:45:52.352Z,14.10
2019-04-03T13:48:22.054Z,14.10
2019-04-03T13:50:53.991Z,14.20
2019-04-03T13:53:25.588Z,14.20
2019-04-03T13:55:55.874Z,14.10
2019-04-03T13:58:27.919Z,14.10
2019-04-03T14:01:02.106Z,14.10
2019-04-03T14:03:29.796Z,14.10
2019-04-03T14:05:59.571Z,14.00
2019-04-03T14:08:29.216Z,14.00
2019-04-03T14:10:59.027Z,13.90
2019-04-03T14:13:29.025Z,13.90
2019-04-03T14:15:58.669Z,13.90
2019-04-03T14:18:28.479Z,13.80
2019-04-03T14:20:58.153Z,13.70
2019-04-03T14:23:28.157Z,13.70
2019-04-03T14:26:05.587Z,13.60
2019-04-03T14:28:29.144Z,13.50
2019-04-03T14:30:58.794Z,13.50
2019-04-03T14:33:41.298Z,13.40
2019-04-03T14:36:00.165Z,13.40
2019-04-03T14:38:31.019Z,13.30
2019-04-03T14:41:01.195Z,13.30
2019-04-03T14:43:32.752Z,13.20
2019-04-03T14:46:02.170Z,13.10
2019-04-03T14:48:31.810Z,13.10
2019-04-03T14:51:01.906Z,13.10
2019-04-03T14:53:31.700Z,13.00
2019-04-03T14:56:01.651Z,13.00
2019-04-03T14:58:31.825Z,12.90
2019-04-03T15:01:02.464Z,12.90
2019-04-03T15:03:34.045Z,12.90
2019-04-03T15:06:03.749Z,12.90
2019-04-03T15:08:34.627Z,12.90
2019-04-03T15:11:04.722Z,12.90
2019-04-03T15:13:34.427Z,12.90
2019-04-03T15:16:04.553Z,12.90
2019-04-03T15:18:34.513Z,12.90
2019-04-03T15:21:04.715Z,13.00
2019-04-03T15:23:38.335Z,13.00
2019-04-03T15:26:05.841Z,13.10
2019-04-03T15:28:35.477Z,13.10
2019-04-03T15:31:05.415Z,13.10
2019-04-03T15:33:35.256Z,13.00
2019-04-03T15:36:04.978Z,12.90
2019-04-03T15:38:35.076Z,12.90
2019-04-03T15:41:06.063Z,12.80
2019-04-03T15:43:35.988Z,12.70
2019-04-03T15:46:05.779Z,12.60
2019-04-03T15:48:35.605Z,12.60
2019-04-03T15:51:06.252Z,12.60
2019-04-03T15:53:37.224Z,12.60
2019-04-03T15:56:06.951Z,12.50
2019-04-03T15:58:36.691Z,12.60
2019-04-03T16:01:08.350Z,12.60
2019-04-03T16:03:37.947Z,12.50
2019-04-03T16:06:07.713Z,12.60
2019-04-03T16:08:37.374Z,12.60
2019-04-03T16:11:07.155Z,12.60
2019-04-03T16:13:36.902Z,12.60
2019-04-03T16:16:06.588Z,12.70
2019-04-03T16:18:38.552Z,12.60
2019-04-03T16:21:07.624Z,12.60
2019-04-03T16:23:38.191Z,12.60
2019-04-03T16:26:08.835Z,12.60
2019-04-03T16:28:38.747Z,12.50
2019-04-03T16:31:08.467Z,12.50
2019-04-03T16:33:38.166Z,12.50
2019-04-03T16:36:08.088Z,12.50
2019-04-03T16:38:38.228Z,12.40
2019-04-03T16:41:10.134Z,12.30
2019-04-03T16:43:39.444Z,12.20
2019-04-03T16:46:11.370Z,12.10
2019-04-03T16:48:40.471Z,12.10
2019-04-03T16:51:10.133Z,11.90
2019-04-03T16:53:40.181Z,11.90
2019-04-03T16:56:09.959Z,11.80
2019-04-03T16:58:39.662Z,11.70
2019-04-03T17:01:12.856Z,11.60
2019-04-03T17:03:41.028Z,11.50
2019-04-03T17:06:13.678Z,11.50
2019-04-03T17:08:43.644Z,11.40
2019-04-03T17:11:13.398Z,11.40
2019-04-03T17:13:43.411Z,11.30
2019-04-03T17:16:14.728Z,11.20
2019-04-03T17:18:47.137Z,11.20
2019-04-03T17:21:16.426Z,11.10
2019-04-03T17:23:46.813Z,11.00
2019-04-03T17:26:17.547Z,11.00
2019-04-03T17:28:47.287Z,11.00
2019-04-03T17:31:17.099Z,10.90
2019-04-03T17:33:46.759Z,10.80
2019-04-03T17:36:17.695Z,10.80
2019-04-03T17:38:48.486Z,10.70
2019-04-03T17:41:18.364Z,10.60
2019-04-03T17:43:48.040Z,10.50
2019-04-03T17:46:18.221Z,10.50
2019-04-03T17:48:48.084Z,10.40
2019-04-03T17:51:17.836Z,10.40
2019-04-03T17:53:47.480Z,10.30
2019-04-03T17:56:17.142Z,10.30
2019-04-03T17:58:47.884Z,10.20
2019-04-03T18:01:20.595Z,10.20
2019-04-03T18:03:50.512Z,10.10
2019-04-03T18:06:20.289Z,10.10
2019-04-03T18:08:50.015Z,10.10
2019-04-03T18:11:20.802Z,10.10
2019-04-03T18:13:50.528Z,10.00
2019-04-03T18:16:20.280Z,10.00
2019-04-03T18:18:50.178Z,9.90
2019-04-03T18:21:19.991Z,9.90
2019-04-03T18:23:52.540Z,9.90
2019-04-03T18:26:21.070Z,9.80
2019-04-03T18:28:51.096Z,9.80
2019-04-03T18:31:21.160Z,9.80
2019-04-03T18:33:51.020Z,9.70
2019-04-03T18:36:20.709Z,9.70
2019-04-03T18:38:50.351Z,9.60
2019-04-03T18:41:20.023Z,9.60
2019-04-03T18:43:49.759Z,9.60
2019-04-03T18:46:31.570Z,9.50
2019-04-03T18:48:54.551Z,9.50
2019-04-03T18:51:22.403Z,9.40
2019-04-03T18:53:52.039Z,9.40
2019-04-03T18:56:21.709Z,9.30
2019-04-03T18:58:53.047Z,9.30
2019-04-03T19:01:22.772Z,9.20
2019-04-03T19:03:52.411Z,9.20
2019-04-03T19:06:22.068Z,9.20
2019-04-03T19:08:52.007Z,9.10
2019-04-03T19:11:21.907Z,9.10
2019-04-03T19:13:51.689Z,9.00
2019-04-03T19:16:29.446Z,9.00
2019-04-03T19:18:53.914Z,8.90
2019-04-03T19:21:25.594Z,8.90
2019-04-03T19:23:56.233Z,8.80
2019-04-03T19:26:25.983Z,8.80
2019-04-03T19:28:55.636Z,8.80
2019-04-03T19:31:26.004Z,8.70
2019-04-03T19:33:55.895Z,8.70
2019-04-03T19:36:25.839Z,8.60
2019-04-03T19:38:55.743Z,8.60
2019-04-03T19:41:25.496Z,8.50
2019-04-03T19:43:55.340Z,8.50
2019-04-03T19:46:25.146Z,8.50
2019-04-03T19:48:56.642Z,8.40
2019-04-03T19:51:26.306Z,8.40
2019-04-03T19:53:59.382Z,8.40
2019-04-03T19:56:27.687Z,8.40
2019-04-03T19:58:59.310Z,8.30
2019-04-03T20:01:28.900Z,8.30
2019-04-03T20:03:58.681Z,8.30
2019-04-03T20:06:28.491Z,8.30
2019-04-03T20:09:00.921Z,8.20
2019-04-03T20:11:34.159Z,8.30
2019-04-03T20:14:04.164Z,8.20
2019-04-03T20:16:35.159Z,8.20
2019-04-03T20:19:04.896Z,8.20
2019-04-03T20:21:35.894Z,8.20
2019-04-03T20:24:06.170Z,8.20
2019-04-03T20:26:36.012Z,8.20
2019-04-03T20:29:05.762Z,8.20
2019-04-03T20:31:35.736Z,8.10
2019-04-03T20:34:06.032Z,8.10
2019-04-03T20:36:35.756Z,8.10
2019-04-03T20:39:08.063Z,8.10
2019-04-03T20:41:38.010Z,8.10
2019-04-03T20:44:07.796Z,8.00
2019-04-03T20:46:37.769Z,8.00
2019-04-03T20:49:07.640Z,8.00
2019-04-03T20:51:38.026Z,8.00
2019-04-03T20:54:11.627Z,8.00
2019-04-03T20:56:40.685Z,7.90
2019-04-03T20:59:11.979Z,7.90
2019-04-03T21:01:42.240Z,7.90
2019-04-03T21:04:12.990Z,7.90
2019-04-03T21:06:43.839Z,7.80
2019-04-03T21:09:13.740Z,7.80
2019-04-03T21:11:43.524Z,7.80
2019-04-03T21:14:13.417Z,7.80
2019-04-03T21:16:43.341Z,7.80
2019-04-03T21:19:12.999Z,7.80
2019-04-03T21:21:42.618Z,7.80
2019-04-03T21:24:12.315Z,7.80
2019-04-03T21:26:42.004Z,7.70
2019-04-03T21:29:11.763Z,7.70
2019-04-03T21:31:41.426Z,7.70
2019-04-03T21:34:11.223Z,7.80
2019-04-03T21:36:40.964Z,7.80
2019-04-03T21:39:10.982Z,7.80
2019-04-03T21:41:42.100Z,7.80
2019-04-03T21:44:11.832Z,7.80
2019-04-03T21:46:41.620Z,7.80
2019-04-03T21:49:11.348Z,7.80
2019-04-03T21:51:41.195Z,7.80
2019-04-03T21:54:10.850Z,7.80
2019-04-03T21:56:40.927Z,7.80
2019-04-03T21:59:10.928Z,7.90
2019-04-03T22:01:41.245Z,7.90
2019-04-03T22:04:11.031Z,7.90
2019-04-03T22:06:40.757Z,7.90
2019-04-03T22:09:12.635Z,8.00
2019-04-03T22:11:42.600Z,8.00
2019-04-03T22:14:12.424Z,8.00
2019-04-03T22:16:42.235Z,8.00
2019-04-03T22:19:12.047Z,8.00
2019-04-03T22:21:41.948Z,8.00
2019-04-03T22:24:11.785Z,8.00
2019-04-03T22:26:41.653Z,8.10
2019-04-03T22:29:11.449Z,8.10
2019-04-03T22:31:41.247Z,8.10
2019-04-03T22:34:11.057Z,8.10
2019-04-03T22:36:40.950Z,8.10
2019-04-03T22:39:13.581Z,8.10
2019-04-03T22:41:42.903Z,8.10
2019-04-03T22:44:13.219Z,8.10
2019-04-03T22:46:42.957Z,8.10
2019-04-03T22:49:12.749Z,8.10
2019-04-03T22:51:42.815Z,8.10
2019-04-03T22:54:13.225Z,8.10
2019-04-03T22:56:43.054Z,8.00
2019-04-03T22:59:12.837Z,8.00
2019-04-03T23:01:43.698Z,8.10
2019-04-03T23:04:13.455Z,8.10
2019-04-03T23:06:43.294Z,8.10
2019-04-03T23:09:13.233Z,8.10
2019-04-03T23:11:43.078Z,8.10
2019-04-03T23:14:12.886Z,8.20
2019-04-03T23:16:43.675Z,8.20
2019-04-03T23:19:13.503Z,8.20
2019-04-03T23:21:43.407Z,8.20
2019-04-03T23:24:13.297Z,8.20
2019-04-03T23:26:43.165Z,8.20
2019-04-03T23:29:13.059Z,8.10
2019-04-03T23:31:44.650Z,8.20
2019-04-03T23:34:14.387Z,8.10
2019-04-03T23:36:44.417Z,8.20
2019-04-03T23:39:14.299Z,8.20
2019-04-03T23:41:44.047Z,8.20
2019-04-03T23:44:13.815Z,8.20
2019-04-03T23:46:45.633Z,8.20
2019-04-03T23:49:15.915Z,8.20
2019-04-03T23:51:45.816Z,8.20
2019-04-03T23:54:15.621Z,8.20
2019-04-03T23:56:45.435Z,8.20
2019-04-03T23:59:15.260Z,8.30
